createdAt,value
2022-12-29T16:39:43.799Z,6.32
2022-12-29T16:44:43.492Z,6.38
2022-12-29T16:49:50.271Z,6.39
2022-12-29T16:59:43.810Z,6.35
2022-12-29T17:04:48.243Z,6.34
2022-12-29T17:09:44.006Z,6.31
2022-12-29T17:14:45.951Z,6.27
2022-12-29T17:19:47.609Z,6.25
2022-12-29T17:24:43.919Z,6.23
2022-12-29T17:29:43.692Z,6.33
2022-12-29T17:34:43.875Z,6.41
2022-12-29T17:39:43.717Z,6.46
2022-12-29T17:44:44.154Z,6.47
2022-12-29T17:59:44.124Z,6.46
2022-12-29T18:04:43.751Z,6.39
2022-12-29T18:09:43.822Z,6.37
2022-12-29T18:14:43.781Z,6.32
2022-12-29T18:19:43.897Z,6.30
2022-12-29T18:24:44.007Z,6.27
2022-12-29T18:29:44.305Z,6.20
2022-12-29T18:34:44.535Z,6.14
2022-12-29T18:39:43.971Z,6.12
2022-12-29T18:44:43.852Z,6.09
2022-12-29T18:54:44.259Z,6.07
2022-12-29T18:59:43.871Z,6.00
2022-12-29T19:04:46.081Z,5.96
2022-12-29T19:09:43.871Z,5.95
2022-12-29T19:14:44.556Z,5.93
2022-12-29T19:19:43.984Z,5.91
2022-12-29T19:24:44.078Z,5.87
2022-12-29T19:29:44.133Z,5.83
2022-12-29T19:34:45.013Z,5.82
2022-12-29T19:39:46.647Z,5.76
2022-12-29T19:44:43.925Z,5.71
2022-12-29T19:49:44.060Z,5.69
2022-12-29T19:54:44.031Z,5.62
2022-12-29T19:59:44.965Z,5.61
2022-12-29T20:04:44.107Z,5.58
2022-12-29T20:09:44.625Z,5.59
2022-12-29T20:14:44.870Z,5.54
2022-12-29T20:19:44.099Z,5.50
2022-12-29T20:24:49.852Z,5.49
2022-12-29T20:34:45.562Z,5.43
2022-12-29T20:39:44.647Z,5.40
2022-12-29T20:44:44.457Z,5.38
2022-12-29T20:49:44.085Z,5.35
2022-12-29T20:54:44.438Z,5.34
2022-12-29T21:05:22.158Z,5.31
2022-12-29T21:09:44.244Z,5.32
2022-12-29T21:14:45.968Z,5.30
2022-12-29T21:19:44.256Z,5.31
2022-12-29T21:24:44.291Z,5.28
2022-12-29T21:29:44.303Z,5.23
2022-12-29T21:34:45.838Z,5.16
2022-12-29T21:44:54.477Z,5.13
2022-12-29T21:54:54.212Z,5.08
2022-12-29T21:59:54.299Z,5.06
2022-12-29T22:04:54.199Z,5.08
2022-12-29T22:09:54.230Z,5.05
2022-12-29T22:14:44.522Z,5.06
2022-12-29T22:19:44.386Z,5.03
2022-12-29T22:24:44.575Z,5.05
2022-12-29T22:29:44.779Z,5.03
2022-12-29T22:34:46.288Z,5.04
2022-12-29T22:44:44.653Z,5.01
2022-12-29T22:59:44.575Z,4.99
2022-12-29T23:05:02.947Z,4.96
2022-12-29T23:09:45.189Z,4.95
2022-12-29T23:14:44.663Z,4.88
2022-12-29T23:19:44.790Z,4.82
2022-12-29T23:24:44.577Z,4.76
2022-12-29T23:29:44.800Z,4.73
2022-12-29T23:34:44.696Z,4.70
2022-12-29T23:39:44.666Z,4.67
2022-12-29T23:44:44.634Z,4.62
2022-12-29T23:49:44.768Z,4.61
2022-12-29T23:54:44.649Z,4.62
